首页
METAR-TAF:

METAR-TAF

机场 :

塔什干, 乌兹别克斯坦

塔什干国际机场

纬度: 41-16N, 经度: 069-16E, 海拔: 489米

当前天气观测

该预报发布于22分钟前的22:00 UTC
风速6节,风向东北
温度 12°C
湿度 82%
气压 1025 hPa
能见度10公里或以上
1500米以下无云,无积雨云

METAR: UTTT 252200Z 04006KT CAVOK 12/09 Q1025 R08R/CLRD70 NOSIG

时间: 03:22 (22:22 UTC)

预报

该预报发布于5小时和22分钟前的17:00 UTC
预报有效从25日的 18点(UTC)到 26日的 18点(UTC)
风速2节,风向多变
能見度: 7000
短暂存在
从 25日的 18点(UTC)到 26日的 03点(UTC)
风速15节,风向北转西北
能見度: 3000
少量云层高于5000英尺, 积雨云.
轻雾, 烟

TAF: UTTT 251700Z 2518/2618 VRB02KT 7000 NSC TEMPO 2518/2603 34015KT 3000 BR FU FEW050CB

超过4000个机场的气象观测和天气预报(METAR&TAF报告)。

可查询的气象台以黄色和红色小点在地图上表示。

将鼠标移到小点上方,可查看气象台名称。

然后点击查看天气观测和预报。

如需切换地图:点击带黑十字的绿色按钮放大地图;点击带横线的绿色按钮缩小地图;或者点击绿色箭头查看邻近地区的地图。


METAR-TAF: